CheckWX is a tool to help pilots better visualize weather data.  It is not intended as a substitute for an official pre-flight weather briefing.

21:37:33 UTC

WBGG TAF
Kuching International Airport
Kuching, Malaysia
TAF WBGG 201700Z 2018/2118 33005KT 9999 FEW020

Mar-20@
18:00 UTC

Mar-20 @ 18:00 UTC

Mar-21@
18:00 UTC

Mar-21 @ 18:00 UTC

TAF WBGG 201700Z 2018/2118 33005KT 9999 FEW020
Wind
  • 330° at 5 KTS
Cloud Levels
  • Few at 2,000' AGL